createdAt,value
2022-08-10T00:00:53.799Z,154470.34
2022-08-10T00:03:21.187Z,154452.25
2022-08-10T00:05:52.716Z,154439.25
2022-08-10T00:08:23.891Z,154415.97
2022-08-10T00:10:52.124Z,154426.31
2022-08-10T00:13:21.584Z,154412.06
2022-08-10T00:15:53.340Z,154408.22
2022-08-10T00:18:34.465Z,154418.56
2022-08-10T00:21:03.169Z,154383.59
2022-08-10T00:23:30.592Z,154401.72
2022-08-10T00:25:57.997Z,154406.91
2022-08-10T00:28:26.741Z,154410.81
2022-08-10T00:30:54.757Z,154399.13
2022-08-10T00:33:22.142Z,154399.13
2022-08-10T00:35:50.537Z,154353.81
2022-08-10T00:38:18.008Z,154361.53
2022-08-10T00:40:46.066Z,154370.63
2022-08-10T00:43:13.529Z,154343.47
2022-08-10T00:45:42.253Z,154340.84
2022-08-10T00:48:10.660Z,154314.97
2022-08-10T00:50:38.123Z,154312.38
2022-08-10T00:53:06.221Z,154276.16
2022-08-10T00:55:33.862Z,154238.59
2022-08-10T00:58:21.806Z,154245.09
2022-08-10T01:00:50.549Z,154255.41
2022-08-10T01:03:18.064Z,154265.75
2022-08-10T01:06:13.544Z,154263.22
2022-08-10T01:08:52.311Z,154232.16
2022-08-10T01:12:40.049Z,154238.59
2022-08-10T01:14:24.055Z,154251.53
2022-08-10T01:16:57.806Z,154269.66
2022-08-10T01:19:43.195Z,154248.97
2022-08-10T01:22:39.602Z,154224.34
2022-08-10T01:25:21.767Z,154217.91
2022-08-10T01:28:01.452Z,154273.56
2022-08-10T01:30:33.570Z,154283.91
2022-08-10T01:33:06.260Z,154234.75
2022-08-10T01:35:39.310Z,154198.47
2022-08-10T01:38:11.269Z,154203.66
2022-08-10T01:40:49.890Z,154189.44
2022-08-10T01:43:20.099Z,154176.50
2022-08-10T01:45:55.722Z,154195.88
2022-08-10T01:48:31.464Z,154136.34
2022-08-10T01:51:05.684Z,154151.94
2022-08-10T01:53:40.034Z,154132.47
2022-08-10T01:56:11.609Z,154115.63
2022-08-10T01:58:40.488Z,154094.94
2022-08-10T02:01:16.600Z,154085.91
2022-08-10T02:04:04.928Z,154097.53
2022-08-10T02:06:36.649Z,154074.22
2022-08-10T02:09:07.171Z,154030.28
2022-08-10T02:12:05.338Z,154034.13
2022-08-10T02:14:25.546Z,154025.09
2022-08-10T02:17:03.639Z,154014.78
2022-08-10T02:19:34.130Z,154019.91
2022-08-10T02:22:34.782Z,154014.78
2022-08-10T02:24:53.242Z,153978.56
2022-08-10T02:27:25.317Z,153961.75
2022-08-10T02:29:54.599Z,153972.09
2022-08-10T02:32:36.222Z,153983.72
2022-08-10T02:35:06.942Z,153948.84
2022-08-10T02:37:38.294Z,153919.09
2022-08-10T02:40:06.690Z,153926.81
2022-08-10T02:45:19.856Z,153937.19
2022-08-10T02:45:54.404Z,153953.97
2022-08-10T02:48:28.736Z,153972.09
2022-08-10T02:50:57.696Z,153979.81
2022-08-10T02:53:54.682Z,153990.22
2022-08-10T02:56:23.909Z,153988.91
2022-08-10T02:58:56.337Z,153986.31
2022-08-10T03:01:28.213Z,153960.47
2022-08-10T03:04:01.671Z,153950.13
2022-08-10T03:06:35.792Z,153952.66
2022-08-10T03:09:04.563Z,153921.69
2022-08-10T03:12:37.891Z,153825.97
2022-08-10T03:14:22.493Z,153842.78
2022-08-10T03:16:52.769Z,153849.22
2022-08-10T03:20:33.335Z,153863.50
2022-08-10T03:22:10.886Z,153885.44
2022-08-10T03:24:40.032Z,153888.03
2022-08-10T03:27:08.102Z,153847.94
2022-08-10T03:30:29.703Z,153849.22
2022-08-10T03:32:25.530Z,153849.22
2022-08-10T03:34:55.274Z,153835.00
2022-08-10T03:37:22.754Z,153833.72
2022-08-10T03:39:51.293Z,153814.34
2022-08-10T03:42:21.127Z,153802.72
2022-08-10T03:44:50.832Z,153810.44
2022-08-10T03:47:20.839Z,153831.09
2022-08-10T03:49:49.903Z,153854.41
2022-08-10T03:52:20.194Z,153868.69
2022-08-10T03:54:51.481Z,153859.56
2022-08-10T03:57:19.538Z,153888.03
2022-08-10T03:59:47.596Z,153876.41
2022-08-10T04:02:45.458Z,153879.00
2022-08-10T04:05:02.985Z,153910.06
2022-08-10T04:07:31.980Z,153891.94
2022-08-10T04:09:59.360Z,153916.50
2022-08-10T04:12:27.283Z,153929.41
2022-08-10T04:14:54.683Z,153939.75
2022-08-10T04:18:03.038Z,153955.25
2022-08-10T04:20:19.203Z,153968.19
2022-08-10T04:22:51.632Z,153983.72
2022-08-10T04:25:19.970Z,153991.50
2022-08-10T04:27:48.154Z,154006.97
2022-08-10T04:30:15.957Z,153972.09
2022-08-10T04:32:45.319Z,153972.09
2022-08-10T04:35:14.837Z,153982.41
2022-08-10T04:37:47.190Z,153981.13
2022-08-10T04:40:28.296Z,154001.84
2022-08-10T04:43:02.117Z,154036.72
2022-08-10T04:45:49.011Z,154030.28
2022-08-10T04:48:42.400Z,154032.88
2022-08-10T04:51:05.871Z,154049.66
2022-08-10T04:53:33.265Z,154075.53
2022-08-10T04:56:31.191Z,154116.91
2022-08-10T04:58:59.737Z,154085.91
2022-08-10T05:01:27.259Z,154118.22
2022-08-10T05:04:34.973Z,154144.13
2022-08-10T05:06:53.366Z,154132.47
2022-08-10T05:09:20.933Z,154135.06
2022-08-10T05:11:49.717Z,154141.53
2022-08-10T05:14:17.119Z,154154.53
2022-08-10T05:16:44.524Z,154179.09
2022-08-10T05:19:11.896Z,154233.44
2022-08-10T05:21:56.968Z,154276.16
2022-08-10T05:24:26.738Z,154291.63
2022-08-10T05:27:08.366Z,154322.72
2022-08-10T05:29:37.938Z,154353.81
2022-08-10T05:32:06.158Z,154375.78
2022-08-10T05:34:33.982Z,154375.78
2022-08-10T05:37:02.254Z,154373.19
2022-08-10T05:39:32.117Z,154351.19
2022-08-10T05:42:02.875Z,154413.38
2022-08-10T05:44:31.037Z,154454.81
2022-08-10T05:46:58.681Z,154430.22
2022-08-10T05:49:26.108Z,154406.91
2022-08-10T05:51:53.713Z,154374.50
2022-08-10T05:54:21.223Z,154347.31
2022-08-10T05:56:55.827Z,154322.72
2022-08-10T06:00:34.838Z,154342.16
2022-08-10T06:02:33.928Z,154348.59
2022-08-10T06:05:10.464Z,154415.97
2022-08-10T06:07:43.605Z,154423.75
2022-08-10T06:10:31.039Z,154498.84
2022-08-10T06:13:26.777Z,154522.13
2022-08-10T06:16:02.041Z,154579.13
2022-08-10T06:18:29.971Z,154656.91
2022-08-10T06:20:58.273Z,154684.09
2022-08-10T06:23:27.189Z,154675.03
2022-08-10T06:26:11.333Z,154669.84
2022-08-10T06:28:43.461Z,154747.63
2022-08-10T06:31:48.767Z,154850.00
2022-08-10T06:34:20.413Z,154879.84
2022-08-10T06:36:48.860Z,154920.06
2022-08-10T06:39:32.964Z,154949.88
2022-08-10T06:42:16.443Z,155012.09
2022-08-10T06:44:54.612Z,154996.53
2022-08-10T06:47:26.822Z,155022.47
2022-08-10T06:50:00.078Z,155075.63
2022-08-10T06:52:32.302Z,155141.88
2022-08-10T06:55:09.065Z,155180.78
2022-08-10T06:57:38.792Z,155227.47
2022-08-10T07:00:08.763Z,155276.81
2022-08-10T07:02:45.701Z,155122.38
2022-08-10T07:05:18.076Z,155113.31
2022-08-10T07:07:47.814Z,155213.19
2022-08-10T07:10:19.490Z,155326.16
2022-08-10T07:12:48.662Z,155466.38
2022-08-10T07:15:18.264Z,155548.22
2022-08-10T07:17:47.771Z,155694.97
2022-08-10T07:20:17.283Z,155791.19
2022-08-10T07:23:08.110Z,155925.09
2022-08-10T07:25:36.039Z,156202.13
2022-08-10T07:28:04.351Z,156315.31
2022-08-10T07:30:36.874Z,156521.03
2022-08-10T07:33:07.311Z,156530.13
2022-08-10T07:35:42.084Z,156535.34
2022-08-10T07:38:13.993Z,156528.84
2022-08-10T07:40:42.672Z,156298.41
2022-08-10T07:43:11.590Z,156109.75
2022-08-10T07:45:40.787Z,155965.38
2022-08-10T07:48:12.706Z,156000.47
2022-08-10T07:50:41.865Z,155957.59
2022-08-10T07:53:13.672Z,155903.00
2022-08-10T07:56:07.522Z,155882.13
2022-08-10T07:58:35.022Z,155822.34
2022-08-10T08:01:02.488Z,155892.53
2022-08-10T08:03:33.435Z,155939.41
2022-08-10T08:06:05.527Z,155981.00
2022-08-10T08:08:41.052Z,155949.78
2022-08-10T08:11:10.141Z,155994.00
2022-08-10T08:13:55.431Z,156099.34
2022-08-10T08:16:23.732Z,156228.13
2022-08-10T08:19:26.362Z,156194.28
2022-08-10T08:24:04.729Z,156293.22
2022-08-10T08:24:36.482Z,156308.84
2022-08-10T08:27:05.430Z,156379.13
2022-08-10T08:29:36.168Z,156454.63
2022-08-10T08:32:04.866Z,156544.44
2022-08-10T08:34:37.470Z,156647.38
2022-08-10T08:37:06.436Z,156678.59
2022-08-10T08:39:35.991Z,156665.56
2022-08-10T08:42:36.180Z,156566.59
2022-08-10T08:45:14.390Z,156664.31
2022-08-10T08:48:06.279Z,156717.72
2022-08-10T08:50:48.233Z,156742.44
2022-08-10T08:54:02.314Z,156785.50
2022-08-10T08:56:31.758Z,156798.53
2022-08-10T08:59:09.745Z,156863.66
2022-08-10T09:01:51.167Z,156629.13
2022-08-10T09:04:37.161Z,156786.81
2022-08-10T09:07:59.149Z,156950.97
2022-08-10T09:10:37.542Z,156894.94
2022-08-10T09:13:11.631Z,156949.72
2022-08-10T09:15:45.705Z,157038.31
2022-08-10T09:18:18.829Z,156991.41
2022-08-10T09:20:50.246Z,157108.75
2022-08-10T09:24:05.429Z,157192.22
2022-08-10T09:26:20.672Z,157046.16
2022-08-10T09:29:00.438Z,157168.75
2022-08-10T09:32:54.977Z,157248.28
2022-08-10T09:36:20.690Z,157258.75
2022-08-10T09:37:39.972Z,157307.00
2022-08-10T09:40:59.563Z,157492.31
2022-08-10T09:43:26.056Z,157380.03
2022-08-10T09:46:05.154Z,157470.09
2022-08-10T09:48:40.372Z,157577.19
2022-08-10T09:54:13.599Z,157081.34
2022-08-10T09:57:06.991Z,156936.63
2022-08-10T09:59:59.844Z,156857.09
2022-08-10T10:02:39.110Z,156944.47
2022-08-10T10:05:18.798Z,157051.34
2022-08-10T10:07:54.652Z,157037.00
2022-08-10T10:10:29.086Z,157123.09
2022-08-10T10:13:01.120Z,157273.09
2022-08-10T10:15:35.926Z,156949.72
2022-08-10T10:18:19.856Z,157080.03
2022-08-10T10:20:56.579Z,157103.53
2022-08-10T10:23:36.030Z,157160.91
2022-08-10T10:26:18.455Z,157064.38
2022-08-10T10:29:30.871Z,157108.75
2022-08-10T10:31:58.711Z,157130.91
2022-08-10T10:34:35.964Z,157167.44
2022-08-10T10:37:06.475Z,157249.59
2022-08-10T10:39:36.851Z,157163.53
2022-08-10T10:42:42.192Z,156990.09
2022-08-10T10:45:19.137Z,157017.47
2022-08-10T10:48:00.372Z,156952.28
2022-08-10T10:50:35.647Z,157004.44
2022-08-10T10:53:11.145Z,157046.16
2022-08-10T10:56:13.252Z,157176.56
2022-08-10T10:58:44.118Z,157116.56
2022-08-10T11:01:26.743Z,156957.50
2022-08-10T11:04:06.226Z,156956.19
2022-08-10T11:06:45.376Z,156957.50
2022-08-10T11:10:07.960Z,156838.91
2022-08-10T11:12:21.433Z,156954.88
2022-08-10T11:15:02.174Z,157074.78
2022-08-10T11:17:47.180Z,157172.63
2022-08-10T11:20:18.797Z,157082.66
2022-08-10T11:22:53.985Z,157091.75
2022-08-10T11:25:30.326Z,157087.81
2022-08-10T11:28:04.345Z,157030.50
2022-08-10T11:30:34.944Z,157047.41
2022-08-10T11:33:15.172Z,157134.81
2022-08-10T11:36:04.248Z,157240.44
2022-08-10T11:38:57.549Z,157330.50
2022-08-10T11:42:12.442Z,157424.47
2022-08-10T11:44:29.496Z,157556.28
2022-08-10T11:47:03.991Z,157620.22
2022-08-10T11:49:37.483Z,157609.78
2022-08-10T11:52:10.407Z,157625.47
2022-08-10T11:54:43.041Z,157766.50
2022-08-10T11:57:12.555Z,157806.97
2022-08-10T11:59:59.408Z,157792.63
2022-08-10T12:02:34.510Z,157615.03
2022-08-10T12:05:08.489Z,157432.28
2022-08-10T12:08:54.862Z,157569.34
2022-08-10T12:10:29.201Z,157485.75
2022-08-10T12:13:05.800Z,157656.78
2022-08-10T12:15:36.759Z,157648.94
2022-08-10T12:18:09.444Z,157680.28
2022-08-10T12:20:40.237Z,157723.41
2022-08-10T12:23:12.735Z,157682.91
2022-08-10T12:25:56.080Z,157737.78
2022-08-10T12:28:50.103Z,157638.50
2022-08-10T12:31:22.272Z,157753.44
2022-08-10T12:34:02.392Z,157707.75
2022-08-10T12:36:40.675Z,157675.03
2022-08-10T12:39:15.813Z,157706.44
2022-08-10T12:41:52.419Z,157754.75
2022-08-10T12:44:41.180Z,157686.84
2022-08-10T12:47:17.910Z,157647.63
2022-08-10T12:50:30.264Z,157412.72
2022-08-10T12:52:51.477Z,157321.34
2022-08-10T12:55:20.452Z,157372.25
2022-08-10T12:57:52.812Z,157304.41
2022-08-10T13:00:20.955Z,157325.25
2022-08-10T13:02:49.919Z,157364.38
2022-08-10T13:05:18.457Z,157309.59
2022-08-10T13:08:26.909Z,157340.91
2022-08-10T13:11:00.282Z,157237.81
2022-08-10T13:13:33.188Z,157252.16
2022-08-10T13:16:01.429Z,157241.75
2022-08-10T13:18:33.769Z,157356.59
2022-08-10T13:21:20.551Z,157393.09
2022-08-10T13:24:07.038Z,157283.53
2022-08-10T13:27:14.493Z,157424.47
2022-08-10T13:29:33.151Z,157479.25
2022-08-10T13:32:10.835Z,157474.03
2022-08-10T13:34:45.257Z,157367.00
2022-08-10T13:37:16.786Z,157226.09
2022-08-10T13:39:59.325Z,157198.69
2022-08-10T13:42:32.334Z,157184.34
2022-08-10T13:45:12.015Z,157102.22
2022-08-10T13:47:48.555Z,157106.16
2022-08-10T13:50:34.820Z,157095.69
2022-08-10T13:53:10.017Z,157087.81
2022-08-10T13:55:54.515Z,157151.78
2022-08-10T13:58:26.754Z,157262.69
2022-08-10T14:00:56.656Z,157376.13
2022-08-10T14:03:26.740Z,157450.56
2022-08-10T14:05:56.938Z,157518.41
2022-08-10T14:08:27.471Z,157632.00
2022-08-10T14:11:10.317Z,157632.00
2022-08-10T14:13:44.111Z,157547.13
2022-08-10T14:16:12.668Z,157675.03
2022-08-10T14:18:42.149Z,157735.16
2022-08-10T14:21:10.009Z,157568.03
2022-08-10T14:23:41.230Z,157548.41
2022-08-10T14:26:15.838Z,157494.94
2022-08-10T14:28:46.740Z,157458.38
2022-08-10T14:31:21.117Z,157351.34
2022-08-10T14:33:54.499Z,157286.16
2022-08-10T14:36:33.082Z,157192.22
2022-08-10T14:39:03.436Z,157140.06
2022-08-10T14:42:01.380Z,157168.75
2022-08-10T14:44:25.642Z,157129.59
2022-08-10T14:46:56.403Z,157099.66
2022-08-10T14:49:27.194Z,157127.03
2022-08-10T14:52:02.001Z,157114.00
2022-08-10T14:54:33.167Z,157111.38
2022-08-10T14:57:11.447Z,157091.75
2022-08-10T15:00:24.519Z,157061.75
2022-08-10T15:02:40.495Z,157106.16
2022-08-10T15:05:22.629Z,157077.41
2022-08-10T15:07:59.465Z,157046.16
2022-08-10T15:10:28.247Z,157027.91
2022-08-10T15:12:58.931Z,157035.69
2022-08-10T15:15:31.268Z,157000.53
2022-08-10T15:18:18.465Z,156970.53
2022-08-10T15:20:57.095Z,156974.47
2022-08-10T15:23:30.689Z,157009.63
2022-08-10T15:26:11.285Z,156962.75
2022-08-10T15:29:23.656Z,156941.88
2022-08-10T15:31:35.043Z,156930.09
2022-08-10T15:34:22.169Z,156932.72
2022-08-10T15:37:36.829Z,156937.94
2022-08-10T15:40:24.404Z,156956.19
2022-08-10T15:43:02.252Z,156983.56
2022-08-10T15:45:35.676Z,156962.75
2022-08-10T15:48:06.779Z,156953.59
2022-08-10T15:50:40.676Z,156987.50
2022-08-10T15:53:16.565Z,157001.84
2022-08-10T15:55:51.525Z,157040.94
2022-08-10T15:58:38.883Z,157119.19
2022-08-10T16:02:04.558Z,157146.56
2022-08-10T16:04:08.455Z,157183.03
2022-08-10T16:06:40.306Z,157192.22
2022-08-10T16:10:10.602Z,157232.63
2022-08-10T16:12:05.721Z,157254.84
2022-08-10T16:14:36.740Z,157233.94
2022-08-10T16:17:10.315Z,157236.56
2022-08-10T16:19:39.175Z,157237.81
2022-08-10T16:22:35.405Z,157244.34
2022-08-10T16:24:58.078Z,157228.69
2022-08-10T16:27:28.944Z,157202.63
2022-08-10T16:30:00.586Z,157228.69
2022-08-10T16:32:31.481Z,157232.63
2022-08-10T16:35:01.705Z,157228.69
2022-08-10T16:37:57.235Z,157201.31
2022-08-10T16:40:26.800Z,157173.94
2022-08-10T16:42:55.042Z,157155.66
2022-08-10T16:45:30.356Z,157125.72
2022-08-10T16:48:00.186Z,157077.41
2022-08-10T16:50:31.064Z,157039.63
2022-08-10T16:53:02.118Z,157009.63
2022-08-10T16:55:48.791Z,157005.72
2022-08-10T16:58:20.458Z,156935.31
2022-08-10T17:00:49.059Z,156900.13
2022-08-10T17:03:22.781Z,156907.97
2022-08-10T17:06:13.511Z,156911.84
2022-08-10T17:08:48.412Z,156820.66
2022-08-10T17:11:17.411Z,156784.19
2022-08-10T17:13:44.894Z,156773.72
2022-08-10T17:16:16.432Z,156694.22
2022-08-10T17:18:47.895Z,156704.69
2022-08-10T17:21:20.328Z,156678.59
2022-08-10T17:23:51.907Z,156703.38
2022-08-10T17:26:24.750Z,156774.97
2022-08-10T17:29:08.664Z,156704.69
2022-08-10T17:31:54.378Z,156702.06
2022-08-10T17:34:29.636Z,156642.16
2022-08-10T17:36:58.943Z,156634.38
2022-08-10T17:39:39.226Z,156561.38
2022-08-10T17:42:09.279Z,156504.09
2022-08-10T17:44:38.860Z,156457.25
2022-08-10T17:47:10.500Z,156405.16
2022-08-10T17:49:42.111Z,156368.69
2022-08-10T17:52:12.897Z,156324.47
2022-08-10T17:54:44.249Z,156285.41
2022-08-10T17:57:15.135Z,156264.59
2022-08-10T17:59:43.591Z,156243.72
2022-08-10T18:02:15.082Z,156232.00
2022-08-10T18:04:49.594Z,156189.06
2022-08-10T18:07:18.998Z,156164.38
2022-08-10T18:09:50.688Z,156164.38
2022-08-10T18:12:30.504Z,156146.19
2022-08-10T18:15:08.548Z,156151.38
2022-08-10T18:17:44.245Z,156150.06
2022-08-10T18:20:15.232Z,156194.28
2022-08-10T18:22:45.617Z,156259.31
2022-08-10T18:25:19.261Z,156183.91
2022-08-10T18:28:00.898Z,156142.28
2022-08-10T18:30:36.606Z,156134.44
2022-08-10T18:33:09.459Z,156139.66
2022-08-10T18:35:39.466Z,156114.97
2022-08-10T18:38:08.479Z,156105.88
2022-08-10T18:40:38.894Z,156118.88
2022-08-10T18:44:09.956Z,156082.44
2022-08-10T18:45:59.529Z,156044.69
2022-08-10T18:48:35.051Z,155983.59
2022-08-10T18:51:07.192Z,155934.16
2022-08-10T18:53:37.952Z,155930.31
2022-08-10T18:56:13.913Z,155874.38
2022-08-10T18:58:52.344Z,155841.84
2022-08-10T19:01:38.716Z,155819.78
2022-08-10T19:04:28.182Z,155772.97
2022-08-10T19:07:08.432Z,155765.19
2022-08-10T19:09:58.725Z,155719.69
2022-08-10T19:12:40.598Z,155691.06
2022-08-10T19:15:20.298Z,155659.88
2022-08-10T19:18:03.202Z,155663.78
2022-08-10T19:20:38.822Z,155624.81
2022-08-10T19:23:18.640Z,155604.06
2022-08-10T19:26:42.323Z,155591.09
2022-08-10T19:28:48.031Z,155507.91
2022-08-10T19:34:34.305Z,155493.63
2022-08-10T19:37:11.041Z,155474.13
2022-08-10T19:39:59.083Z,155461.16
2022-08-10T19:42:32.480Z,155446.88
2022-08-10T19:45:07.303Z,155437.78
2022-08-10T19:47:39.789Z,155444.25
2022-08-10T19:50:11.962Z,155414.44
2022-08-10T19:52:45.133Z,155401.41
2022-08-10T19:55:18.609Z,155349.50
2022-08-10T19:57:54.113Z,155340.44
2022-08-10T20:00:27.010Z,155331.38
2022-08-10T20:03:07.851Z,155346.91
2022-08-10T20:06:18.665Z,155300.16
2022-08-10T20:08:45.432Z,155287.19
2022-08-10T20:11:44.327Z,155276.81
2022-08-10T20:14:21.677Z,155274.19
2022-08-10T20:16:52.346Z,155271.59
2022-08-10T20:19:52.433Z,155258.63
2022-08-10T20:22:28.690Z,155243.03
2022-08-10T20:25:01.507Z,155224.84
2022-08-10T20:27:59.836Z,155204.13
2022-08-10T20:30:31.974Z,155201.53
2022-08-10T20:33:05.771Z,155180.78
2022-08-10T20:35:47.726Z,155145.72
2022-08-10T20:38:23.171Z,155144.44
2022-08-10T20:41:03.623Z,155162.59
2022-08-10T20:43:42.561Z,155119.78
2022-08-10T20:46:19.059Z,155119.78
2022-08-10T20:48:51.990Z,155112.03
2022-08-10T20:51:23.908Z,155119.78
2022-08-10T20:54:12.353Z,155089.91
2022-08-10T20:56:48.116Z,155071.78
2022-08-10T21:00:04.334Z,155048.44
2022-08-10T21:02:49.004Z,155031.56
2022-08-10T21:05:21.481Z,155031.56
2022-08-10T21:08:06.232Z,154982.25
2022-08-10T21:10:56.460Z,154996.53
2022-08-10T21:13:54.303Z,154991.38
2022-08-10T21:16:37.741Z,154962.84
2022-08-10T21:19:35.336Z,154939.50
2022-08-10T21:22:12.769Z,154953.72
2022-08-10T21:24:59.192Z,154939.50
2022-08-10T21:27:49.083Z,154955.03
2022-08-10T21:30:35.863Z,154921.34
2022-08-10T21:33:09.412Z,154908.38
2022-08-10T21:35:42.437Z,154908.38
2022-08-10T21:38:21.375Z,154912.28
2022-08-10T21:41:57.933Z,154890.22
2022-08-10T21:44:42.283Z,154838.31
2022-08-10T21:47:41.750Z,154870.81
2022-08-10T21:50:46.871Z,154868.16
2022-08-10T21:53:44.018Z,154825.38
2022-08-10T21:56:54.491Z,154809.81
2022-08-10T21:59:48.909Z,154794.25
2022-08-10T22:02:50.372Z,154776.13
2022-08-10T22:05:39.192Z,154752.78
2022-08-10T22:08:44.413Z,154747.63
2022-08-10T22:11:37.553Z,154790.41
2022-08-10T22:14:25.983Z,154741.13
2022-08-10T22:18:10.541Z,154745.03
2022-08-10T22:20:24.994Z,154726.88
2022-08-10T22:23:29.125Z,154704.84
2022-08-10T22:26:31.237Z,154713.91
2022-08-10T22:29:22.683Z,154695.81
2022-08-10T22:32:20.586Z,154685.41
2022-08-10T22:35:21.528Z,154656.91
2022-08-10T22:38:16.581Z,154706.16
2022-08-10T22:41:04.125Z,154764.44
2022-08-10T22:43:52.826Z,154802.06
2022-08-10T22:46:40.778Z,154781.28
2022-08-10T22:49:07.927Z,154729.47
2022-08-10T22:51:59.024Z,154702.25
2022-08-10T22:54:49.743Z,154724.25
2022-08-10T22:57:35.562Z,154690.59
2022-08-10T23:00:31.259Z,154646.53
2022-08-10T23:03:08.010Z,154649.13
2022-08-10T23:05:38.909Z,154725.56
2022-08-10T23:08:19.544Z,154729.47
2022-08-10T23:11:04.078Z,154738.53
2022-08-10T23:13:36.918Z,154726.88
2022-08-10T23:16:33.021Z,154698.34
2022-08-10T23:19:09.726Z,154704.84
2022-08-10T23:22:04.237Z,154671.16
2022-08-10T23:24:37.477Z,154662.09
2022-08-10T23:27:12.942Z,154663.38
2022-08-10T23:30:09.842Z,154640.09
2022-08-10T23:32:46.248Z,154654.34
2022-08-10T23:36:32.442Z,154630.94
2022-08-10T23:38:05.354Z,154627.09
2022-08-10T23:40:34.174Z,154599.88
2022-08-10T23:43:02.752Z,154584.31
2022-08-10T23:45:53.707Z,154572.69
2022-08-10T23:48:24.641Z,154576.53
2022-08-10T23:50:58.415Z,154548.03
2022-08-10T23:53:29.966Z,154540.28
2022-08-10T23:56:04.103Z,154532.53
2022-08-10T23:58:39.281Z,154488.50
